sensor_id;sensor_type;location;lat;lon;timestamp;P1;durP1;ratioP1;P2;durP2;ratioP2
22097;SDS011;11215;51.938;8.464;2022-11-15T00:00:26;6.67;;;5.87;;
22097;SDS011;11215;51.938;8.464;2022-11-15T00:02:53;9.27;;;6.23;;
22097;SDS011;11215;51.938;8.464;2022-11-15T00:05:18;9.57;;;6.47;;
22097;SDS011;11215;51.938;8.464;2022-11-15T00:07:44;6.90;;;5.93;;
22097;SDS011;11215;51.938;8.464;2022-11-15T00:10:10;8.03;;;5.70;;
22097;SDS011;11215;51.938;8.464;2022-11-15T00:12:36;8.30;;;6.10;;
22097;SDS011;11215;51.938;8.464;2022-11-15T00:15:01;6.67;;;5.97;;
22097;SDS011;11215;51.938;8.464;2022-11-15T00:17:27;8.33;;;6.00;;
22097;SDS011;11215;51.938;8.464;2022-11-15T00:19:53;8.10;;;6.23;;
22097;SDS011;11215;51.938;8.464;2022-11-15T00:22:18;7.00;;;6.07;;
22097;SDS011;11215;51.938;8.464;2022-11-15T00:24:44;6.90;;;5.50;;
22097;SDS011;11215;51.938;8.464;2022-11-15T00:27:09;7.53;;;5.80;;
22097;SDS011;11215;51.938;8.464;2022-11-15T00:29:35;9.23;;;6.20;;
22097;SDS011;11215;51.938;8.464;2022-11-15T00:32:03;8.67;;;5.90;;
22097;SDS011;11215;51.938;8.464;2022-11-15T00:34:30;7.43;;;6.27;;
22097;SDS011;11215;51.938;8.464;2022-11-15T00:36:55;7.70;;;6.23;;
22097;SDS011;11215;51.938;8.464;2022-11-15T00:39:21;7.03;;;5.77;;
22097;SDS011;11215;51.938;8.464;2022-11-15T00:41:46;7.43;;;5.80;;
22097;SDS011;11215;51.938;8.464;2022-11-15T00:44:12;7.37;;;6.13;;
22097;SDS011;11215;51.938;8.464;2022-11-15T00:46:38;7.33;;;5.73;;
22097;SDS011;11215;51.938;8.464;2022-11-15T00:49:03;8.13;;;5.80;;
22097;SDS011;11215;51.938;8.464;2022-11-15T00:51:29;6.93;;;5.50;;
22097;SDS011;11215;51.938;8.464;2022-11-15T00:53:54;6.50;;;5.50;;
22097;SDS011;11215;51.938;8.464;2022-11-15T00:56:20;5.70;;;5.10;;
22097;SDS011;11215;51.938;8.464;2022-11-15T00:58:46;6.53;;;5.10;;
22097;SDS011;11215;51.938;8.464;2022-11-15T01:01:13;7.50;;;5.23;;
22097;SDS011;11215;51.938;8.464;2022-11-15T01:03:40;5.70;;;5.07;;
22097;SDS011;11215;51.938;8.464;2022-11-15T01:06:07;6.83;;;5.50;;
22097;SDS011;11215;51.938;8.464;2022-11-15T01:08:33;6.13;;;5.23;;
22097;SDS011;11215;51.938;8.464;2022-11-15T01:11:17;6.73;;;5.03;;
22097;SDS011;11215;51.938;8.464;2022-11-15T01:13:42;6.03;;;5.03;;
22097;SDS011;11215;51.938;8.464;2022-11-15T01:16:09;6.17;;;5.23;;
22097;SDS011;11215;51.938;8.464;2022-11-15T01:18:41;7.90;;;5.07;;
22097;SDS011;11215;51.938;8.464;2022-11-15T01:21:07;7.07;;;5.27;;
22097;SDS011;11215;51.938;8.464;2022-11-15T01:23:34;8.03;;;5.63;;
22097;SDS011;11215;51.938;8.464;2022-11-15T01:26:01;5.70;;;5.10;;
22097;SDS011;11215;51.938;8.464;2022-11-15T01:28:35;5.83;;;5.03;;
22097;SDS011;11215;51.938;8.464;2022-11-15T01:31:03;6.20;;;5.30;;
22097;SDS011;11215;51.938;8.464;2022-11-15T01:33:30;6.90;;;5.23;;
22097;SDS011;11215;51.938;8.464;2022-11-15T01:35:58;6.60;;;5.77;;
22097;SDS011;11215;51.938;8.464;2022-11-15T01:38:29;8.37;;;5.53;;
22097;SDS011;11215;51.938;8.464;2022-11-15T01:40:54;8.20;;;5.67;;
22097;SDS011;11215;51.938;8.464;2022-11-15T01:46:37;9.60;;;6.00;;
22097;SDS011;11215;51.938;8.464;2022-11-15T01:48:46;6.17;;;5.57;;
22097;SDS011;11215;51.938;8.464;2022-11-15T01:51:13;8.30;;;5.10;;
22097;SDS011;11215;51.938;8.464;2022-11-15T01:53:41;8.83;;;5.43;;
22097;SDS011;11215;51.938;8.464;2022-11-15T01:56:13;8.40;;;5.87;;
22097;SDS011;11215;51.938;8.464;2022-11-15T01:58:45;6.80;;;5.57;;
22097;SDS011;11215;51.938;8.464;2022-11-15T02:01:14;6.93;;;5.70;;
22097;SDS011;11215;51.938;8.464;2022-11-15T02:03:45;7.27;;;5.73;;
22097;SDS011;11215;51.938;8.464;2022-11-15T02:06:25;7.50;;;5.93;;
22097;SDS011;11215;51.938;8.464;2022-11-15T02:08:54;9.00;;;5.63;;
22097;SDS011;11215;51.938;8.464;2022-11-15T02:11:21;8.23;;;6.10;;
22097;SDS011;11215;51.938;8.464;2022-11-15T02:13:49;7.93;;;6.13;;
22097;SDS011;11215;51.938;8.464;2022-11-15T02:38:22;9.90;;;6.23;;
22097;SDS011;11215;51.938;8.464;2022-11-15T02:41:07;8.33;;;6.30;;
22097;SDS011;11215;51.938;8.464;2022-11-15T02:46:25;11.43;;;6.63;;
22097;SDS011;11215;51.938;8.464;2022-11-15T02:49:29;10.43;;;7.13;;
22097;SDS011;11215;51.938;8.464;2022-11-15T02:52:07;6.80;;;6.10;;
22097;SDS011;11215;51.938;8.464;2022-11-15T02:54:39;8.77;;;6.53;;
22097;SDS011;11215;51.938;8.464;2022-11-15T02:57:10;8.87;;;7.10;;
22097;SDS011;11215;51.938;8.464;2022-11-15T03:08:40;10.87;;;7.17;;
22097;SDS011;11215;51.938;8.464;2022-11-15T03:11:26;9.17;;;6.53;;
22097;SDS011;11215;51.938;8.464;2022-11-15T03:19:38;12.17;;;7.70;;
22097;SDS011;11215;51.938;8.464;2022-11-15T03:22:19;9.87;;;6.93;;
22097;SDS011;11215;51.938;8.464;2022-11-15T03:24:52;9.70;;;6.97;;
22097;SDS011;11215;51.938;8.464;2022-11-15T03:27:24;11.10;;;7.60;;
22097;SDS011;11215;51.938;8.464;2022-11-15T03:29:57;8.63;;;6.83;;
22097;SDS011;11215;51.938;8.464;2022-11-15T03:32:31;9.00;;;7.00;;
22097;SDS011;11215;51.938;8.464;2022-11-15T03:35:04;10.83;;;8.07;;
22097;SDS011;11215;51.938;8.464;2022-11-15T03:37:53;11.13;;;7.63;;
22097;SDS011;11215;51.938;8.464;2022-11-15T03:41:00;10.53;;;7.17;;
22097;SDS011;11215;51.938;8.464;2022-11-15T03:46:13;9.33;;;7.50;;
22097;SDS011;11215;51.938;8.464;2022-11-15T03:48:54;11.93;;;7.37;;
22097;SDS011;11215;51.938;8.464;2022-11-15T03:51:50;11.27;;;8.53;;
22097;SDS011;11215;51.938;8.464;2022-11-15T03:54:20;12.10;;;8.20;;
22097;SDS011;11215;51.938;8.464;2022-11-15T03:56:49;11.20;;;8.03;;
22097;SDS011;11215;51.938;8.464;2022-11-15T03:59:15;12.00;;;8.50;;
22097;SDS011;11215;51.938;8.464;2022-11-15T04:01:43;13.50;;;8.37;;
22097;SDS011;11215;51.938;8.464;2022-11-15T04:04:11;12.03;;;8.70;;
22097;SDS011;11215;51.938;8.464;2022-11-15T04:06:37;11.57;;;8.23;;
22097;SDS011;11215;51.938;8.464;2022-11-15T04:09:03;10.50;;;8.57;;
22097;SDS011;11215;51.938;8.464;2022-11-15T04:11:34;14.10;;;9.33;;
22097;SDS011;11215;51.938;8.464;2022-11-15T04:14:07;12.57;;;9.47;;
22097;SDS011;11215;51.938;8.464;2022-11-15T04:16:33;14.33;;;9.10;;
22097;SDS011;11215;51.938;8.464;2022-11-15T04:18:59;12.13;;;9.40;;
22097;SDS011;11215;51.938;8.464;2022-11-15T04:21:46;13.53;;;9.50;;
22097;SDS011;11215;51.938;8.464;2022-11-15T04:24:30;11.87;;;9.60;;
22097;SDS011;11215;51.938;8.464;2022-11-15T04:26:59;12.53;;;9.43;;
22097;SDS011;11215;51.938;8.464;2022-11-15T04:29:25;12.73;;;9.70;;
22097;SDS011;11215;51.938;8.464;2022-11-15T04:32:00;13.10;;;9.37;;
22097;SDS011;11215;51.938;8.464;2022-11-15T04:34:38;11.87;;;8.80;;
22097;SDS011;11215;51.938;8.464;2022-11-15T04:37:04;16.73;;;11.60;;
22097;SDS011;11215;51.938;8.464;2022-11-15T04:39:41;14.57;;;10.20;;
22097;SDS011;11215;51.938;8.464;2022-11-15T04:42:09;15.07;;;11.20;;
22097;SDS011;11215;51.938;8.464;2022-11-15T04:44:41;13.73;;;9.60;;
22097;SDS011;11215;51.938;8.464;2022-11-15T04:47:12;17.27;;;11.23;;
22097;SDS011;11215;51.938;8.464;2022-11-15T04:49:37;15.40;;;12.37;;
22097;SDS011;11215;51.938;8.464;2022-11-15T04:52:07;13.20;;;10.97;;
22097;SDS011;11215;51.938;8.464;2022-11-15T04:54:32;17.13;;;12.73;;
22097;SDS011;11215;51.938;8.464;2022-11-15T04:56:58;15.07;;;11.63;;
22097;SDS011;11215;51.938;8.464;2022-11-15T04:59:23;15.07;;;11.70;;
22097;SDS011;11215;51.938;8.464;2022-11-15T05:01:49;14.80;;;12.30;;
22097;SDS011;11215;51.938;8.464;2022-11-15T05:04:15;15.23;;;11.13;;
22097;SDS011;11215;51.938;8.464;2022-11-15T05:06:47;17.47;;;14.57;;
22097;SDS011;11215;51.938;8.464;2022-11-15T05:09:13;13.30;;;10.50;;
22097;SDS011;11215;51.938;8.464;2022-11-15T05:11:39;12.73;;;10.20;;
22097;SDS011;11215;51.938;8.464;2022-11-15T05:14:05;34.10;;;27.33;;
22097;SDS011;11215;51.938;8.464;2022-11-15T05:16:30;14.73;;;12.17;;
22097;SDS011;11215;51.938;8.464;2022-11-15T05:18:56;13.20;;;10.33;;
22097;SDS011;11215;51.938;8.464;2022-11-15T05:21:22;13.80;;;10.37;;
22097;SDS011;11215;51.938;8.464;2022-11-15T05:23:47;11.87;;;9.27;;
22097;SDS011;11215;51.938;8.464;2022-11-15T05:26:13;24.97;;;19.63;;
22097;SDS011;11215;51.938;8.464;2022-11-15T05:28:40;16.07;;;12.53;;
22097;SDS011;11215;51.938;8.464;2022-11-15T05:31:06;16.00;;;11.57;;
22097;SDS011;11215;51.938;8.464;2022-11-15T05:33:33;12.27;;;10.13;;
22097;SDS011;11215;51.938;8.464;2022-11-15T05:36:45;16.43;;;12.93;;
22097;SDS011;11215;51.938;8.464;2022-11-15T05:38:52;30.13;;;23.53;;
22097;SDS011;11215;51.938;8.464;2022-11-15T05:41:18;14.60;;;10.30;;
22097;SDS011;11215;51.938;8.464;2022-11-15T05:43:49;13.23;;;9.50;;
22097;SDS011;11215;51.938;8.464;2022-11-15T05:46:16;11.10;;;8.30;;
22097;SDS011;11215;51.938;8.464;2022-11-15T05:48:43;12.53;;;9.17;;
22097;SDS011;11215;51.938;8.464;2022-11-15T05:51:12;11.70;;;9.13;;
22097;SDS011;11215;51.938;8.464;2022-11-15T05:53:40;11.20;;;9.77;;
22097;SDS011;11215;51.938;8.464;2022-11-15T05:56:06;10.70;;;9.23;;
22097;SDS011;11215;51.938;8.464;2022-11-15T05:58:34;11.47;;;9.20;;
22097;SDS011;11215;51.938;8.464;2022-11-15T06:01:01;12.50;;;8.77;;
22097;SDS011;11215;51.938;8.464;2022-11-15T06:03:27;11.83;;;9.17;;
22097;SDS011;11215;51.938;8.464;2022-11-15T06:05:53;12.40;;;9.10;;
22097;SDS011;11215;51.938;8.464;2022-11-15T06:08:19;15.00;;;11.65;;
22097;SDS011;11215;51.938;8.464;2022-11-15T06:10:45;15.10;;;10.73;;
22097;SDS011;11215;51.938;8.464;2022-11-15T06:13:10;9.83;;;8.67;;
22097;SDS011;11215;51.938;8.464;2022-11-15T06:15:36;11.87;;;9.67;;
22097;SDS011;11215;51.938;8.464;2022-11-15T06:18:01;10.60;;;8.80;;
22097;SDS011;11215;51.938;8.464;2022-11-15T06:20:28;9.67;;;8.00;;
22097;SDS011;11215;51.938;8.464;2022-11-15T06:22:58;10.67;;;8.97;;
22097;SDS011;11215;51.938;8.464;2022-11-15T06:25:25;10.67;;;8.33;;
22097;SDS011;11215;51.938;8.464;2022-11-15T06:27:52;9.10;;;7.13;;
22097;SDS011;11215;51.938;8.464;2022-11-15T06:30:19;13.30;;;10.48;;
22097;SDS011;11215;51.938;8.464;2022-11-15T06:32:45;12.27;;;9.00;;
22097;SDS011;11215;51.938;8.464;2022-11-15T06:35:10;16.33;;;14.63;;
22097;SDS011;11215;51.938;8.464;2022-11-15T06:37:36;12.50;;;9.23;;
22097;SDS011;11215;51.938;8.464;2022-11-15T06:40:02;12.10;;;8.40;;
22097;SDS011;11215;51.938;8.464;2022-11-15T06:42:28;12.93;;;9.20;;
22097;SDS011;11215;51.938;8.464;2022-11-15T06:44:53;9.73;;;8.53;;
22097;SDS011;11215;51.938;8.464;2022-11-15T06:47:19;11.97;;;8.73;;
22097;SDS011;11215;51.938;8.464;2022-11-15T06:49:44;11.70;;;10.60;;
22097;SDS011;11215;51.938;8.464;2022-11-15T06:52:10;9.17;;;7.87;;
22097;SDS011;11215;51.938;8.464;2022-11-15T06:54:36;10.20;;;8.27;;
22097;SDS011;11215;51.938;8.464;2022-11-15T06:57:01;9.63;;;8.00;;
22097;SDS011;11215;51.938;8.464;2022-11-15T06:59:28;8.80;;;7.80;;
22097;SDS011;11215;51.938;8.464;2022-11-15T07:01:54;13.17;;;8.97;;
22097;SDS011;11215;51.938;8.464;2022-11-15T07:04:19;11.07;;;8.03;;
22097;SDS011;11215;51.938;8.464;2022-11-15T07:06:48;9.40;;;7.30;;
22097;SDS011;11215;51.938;8.464;2022-11-15T07:09:14;9.50;;;7.63;;
22097;SDS011;11215;51.938;8.464;2022-11-15T07:11:39;8.77;;;7.23;;
22097;SDS011;11215;51.938;8.464;2022-11-15T07:14:05;10.70;;;7.63;;
22097;SDS011;11215;51.938;8.464;2022-11-15T07:16:31;10.03;;;7.90;;
22097;SDS011;11215;51.938;8.464;2022-11-15T07:18:56;10.07;;;7.67;;
22097;SDS011;11215;51.938;8.464;2022-11-15T07:21:22;16.67;;;13.97;;
22097;SDS011;11215;51.938;8.464;2022-11-15T07:23:48;11.40;;;8.60;;
22097;SDS011;11215;51.938;8.464;2022-11-15T07:26:13;11.10;;;8.87;;
22097;SDS011;11215;51.938;8.464;2022-11-15T07:28:39;10.03;;;7.53;;
22097;SDS011;11215;51.938;8.464;2022-11-15T07:31:06;9.87;;;7.97;;
22097;SDS011;11215;51.938;8.464;2022-11-15T07:33:33;15.73;;;14.10;;
22097;SDS011;11215;51.938;8.464;2022-11-15T07:36:03;12.83;;;10.27;;
22097;SDS011;11215;51.938;8.464;2022-11-15T07:38:34;11.10;;;8.53;;
22097;SDS011;11215;51.938;8.464;2022-11-15T07:41:01;12.47;;;10.57;;
22097;SDS011;11215;51.938;8.464;2022-11-15T07:43:28;9.43;;;7.10;;
22097;SDS011;11215;51.938;8.464;2022-11-15T07:45:55;10.03;;;7.17;;
22097;SDS011;11215;51.938;8.464;2022-11-15T07:48:21;11.67;;;9.57;;
22097;SDS011;11215;51.938;8.464;2022-11-15T07:50:47;12.53;;;9.43;;
22097;SDS011;11215;51.938;8.464;2022-11-15T07:53:13;8.47;;;7.23;;
22097;SDS011;11215;51.938;8.464;2022-11-15T07:55:39;10.13;;;7.27;;
22097;SDS011;11215;51.938;8.464;2022-11-15T07:58:07;8.87;;;6.80;;
22097;SDS011;11215;51.938;8.464;2022-11-15T08:00:35;8.47;;;6.43;;
22097;SDS011;11215;51.938;8.464;2022-11-15T08:03:13;6.67;;;5.97;;
22097;SDS011;11215;51.938;8.464;2022-11-15T08:05:40;7.63;;;6.50;;
22097;SDS011;11215;51.938;8.464;2022-11-15T08:08:08;7.43;;;6.73;;
22097;SDS011;11215;51.938;8.464;2022-11-15T08:10:35;7.67;;;6.87;;
22097;SDS011;11215;51.938;8.464;2022-11-15T08:13:01;7.37;;;6.40;;
22097;SDS011;11215;51.938;8.464;2022-11-15T08:15:32;7.03;;;6.33;;
22097;SDS011;11215;51.938;8.464;2022-11-15T08:17:59;7.87;;;6.80;;
22097;SDS011;11215;51.938;8.464;2022-11-15T08:20:27;10.53;;;7.40;;
22097;SDS011;11215;51.938;8.464;2022-11-15T08:22:59;10.87;;;7.77;;
22097;SDS011;11215;51.938;8.464;2022-11-15T08:25:46;9.57;;;7.30;;
22097;SDS011;11215;51.938;8.464;2022-11-15T08:28:12;8.17;;;6.60;;
22097;SDS011;11215;51.938;8.464;2022-11-15T08:30:41;10.20;;;7.87;;
22097;SDS011;11215;51.938;8.464;2022-11-15T08:33:10;9.00;;;6.50;;
22097;SDS011;11215;51.938;8.464;2022-11-15T08:35:37;7.57;;;6.47;;
22097;SDS011;11215;51.938;8.464;2022-11-15T08:38:03;8.07;;;6.40;;
22097;SDS011;11215;51.938;8.464;2022-11-15T08:40:29;7.37;;;5.60;;
22097;SDS011;11215;51.938;8.464;2022-11-15T08:42:54;6.67;;;5.40;;
22097;SDS011;11215;51.938;8.464;2022-11-15T08:45:20;8.17;;;5.77;;
22097;SDS011;11215;51.938;8.464;2022-11-15T08:47:46;6.93;;;5.47;;
22097;SDS011;11215;51.938;8.464;2022-11-15T08:50:11;5.70;;;4.77;;
22097;SDS011;11215;51.938;8.464;2022-11-15T08:52:37;6.47;;;5.63;;
22097;SDS011;11215;51.938;8.464;2022-11-15T08:55:03;5.33;;;4.67;;
22097;SDS011;11215;51.938;8.464;2022-11-15T08:57:29;7.73;;;6.97;;
22097;SDS011;11215;51.938;8.464;2022-11-15T08:59:55;8.43;;;7.63;;
22097;SDS011;11215;51.938;8.464;2022-11-15T09:02:21;6.90;;;5.73;;
22097;SDS011;11215;51.938;8.464;2022-11-15T09:04:47;8.23;;;7.43;;
22097;SDS011;11215;51.938;8.464;2022-11-15T09:07:13;4.30;;;3.90;;
22097;SDS011;11215;51.938;8.464;2022-11-15T09:09:39;6.23;;;5.33;;
22097;SDS011;11215;51.938;8.464;2022-11-15T09:12:05;5.80;;;5.23;;
22097;SDS011;11215;51.938;8.464;2022-11-15T09:14:31;4.77;;;3.10;;
22097;SDS011;11215;51.938;8.464;2022-11-15T09:16:57;7.97;;;7.30;;
22097;SDS011;11215;51.938;8.464;2022-11-15T09:19:23;5.00;;;4.17;;
22097;SDS011;11215;51.938;8.464;2022-11-15T09:21:49;5.97;;;5.47;;
22097;SDS011;11215;51.938;8.464;2022-11-15T09:24:15;7.17;;;6.53;;
22097;SDS011;11215;51.938;8.464;2022-11-15T09:26:42;5.13;;;4.63;;
22097;SDS011;11215;51.938;8.464;2022-11-15T09:29:07;4.63;;;4.23;;
22097;SDS011;11215;51.938;8.464;2022-11-15T09:31:33;3.73;;;2.80;;
22097;SDS011;11215;51.938;8.464;2022-11-15T09:33:59;5.33;;;4.83;;
22097;SDS011;11215;51.938;8.464;2022-11-15T09:36:27;3.30;;;2.87;;
22097;SDS011;11215;51.938;8.464;2022-11-15T09:39:01;4.03;;;3.03;;
22097;SDS011;11215;51.938;8.464;2022-11-15T09:49:55;3.00;;;2.67;;
22097;SDS011;11215;51.938;8.464;2022-11-15T09:52:24;2.97;;;2.57;;
22097;SDS011;11215;51.938;8.464;2022-11-15T09:54:50;2.60;;;2.40;;
22097;SDS011;11215;51.938;8.464;2022-11-15T09:57:19;2.60;;;2.07;;
22097;SDS011;11215;51.938;8.464;2022-11-15T10:05:37;1.70;;;1.60;;
22097;SDS011;11215;51.938;8.464;2022-11-15T10:10:43;3.43;;;1.63;;
22097;SDS011;11215;51.938;8.464;2022-11-15T10:13:30;3.43;;;2.27;;
22097;SDS011;11215;51.938;8.464;2022-11-15T10:24:08;17.13;;;15.80;;
22097;SDS011;11215;51.938;8.464;2022-11-15T10:26:36;3.97;;;3.67;;
22097;SDS011;11215;51.938;8.464;2022-11-15T10:29:02;2.60;;;2.40;;
22097;SDS011;11215;51.938;8.464;2022-11-15T10:31:28;1.67;;;1.57;;
22097;SDS011;11215;51.938;8.464;2022-11-15T10:36:46;1.67;;;1.40;;
22097;SDS011;11215;51.938;8.464;2022-11-15T10:39:22;1.67;;;1.50;;
22097;SDS011;11215;51.938;8.464;2022-11-15T10:41:48;1.70;;;1.40;;
22097;SDS011;11215;51.938;8.464;2022-11-15T10:44:19;1.50;;;1.40;;
22097;SDS011;11215;51.938;8.464;2022-11-15T10:49:31;1.50;;;1.30;;
22097;SDS011;11215;51.938;8.464;2022-11-15T10:51:59;2.17;;;1.30;;
22097;SDS011;11215;51.938;8.464;2022-11-15T10:54:45;1.83;;;1.50;;
22097;SDS011;11215;51.938;8.464;2022-11-15T10:57:21;1.60;;;1.40;;
22097;SDS011;11215;51.938;8.464;2022-11-15T10:59:49;2.93;;;1.40;;
22097;SDS011;11215;51.938;8.464;2022-11-15T11:04:52;3.20;;;1.60;;
22097;SDS011;11215;51.938;8.464;2022-11-15T11:07:31;1.60;;;1.50;;
22097;SDS011;11215;51.938;8.464;2022-11-15T11:12:43;3.43;;;1.67;;
22097;SDS011;11215;51.938;8.464;2022-11-15T11:15:09;1.73;;;1.63;;
22097;SDS011;11215;51.938;8.464;2022-11-15T11:17:57;3.13;;;1.70;;
22097;SDS011;11215;51.938;8.464;2022-11-15T11:20:47;2.80;;;1.70;;
22097;SDS011;11215;51.938;8.464;2022-11-15T11:23:24;2.13;;;1.50;;
22097;SDS011;11215;51.938;8.464;2022-11-15T11:26:29;2.40;;;1.30;;
22097;SDS011;11215;51.938;8.464;2022-11-15T11:34:52;2.77;;;1.80;;
22097;SDS011;11215;51.938;8.464;2022-11-15T11:37:35;2.60;;;1.90;;
22097;SDS011;11215;51.938;8.464;2022-11-15T11:40:37;1.90;;;1.70;;
22097;SDS011;11215;51.938;8.464;2022-11-15T11:46:00;1.80;;;1.67;;
22097;SDS011;11215;51.938;8.464;2022-11-15T11:49:04;2.47;;;1.97;;
22097;SDS011;11215;51.938;8.464;2022-11-15T11:51:38;2.23;;;2.03;;
22097;SDS011;11215;51.938;8.464;2022-11-15T11:54:12;3.27;;;1.83;;
22097;SDS011;11215;51.938;8.464;2022-11-15T11:56:39;1.83;;;1.60;;
22097;SDS011;11215;51.938;8.464;2022-11-15T12:01:59;6.00;;;1.70;;
22097;SDS011;11215;51.938;8.464;2022-11-15T12:04:38;3.17;;;1.93;;
22097;SDS011;11215;51.938;8.464;2022-11-15T12:07:21;2.83;;;1.60;;
22097;SDS011;11215;51.938;8.464;2022-11-15T12:10:02;2.03;;;1.70;;
22097;SDS011;11215;51.938;8.464;2022-11-15T12:12:55;3.00;;;1.87;;
22097;SDS011;11215;51.938;8.464;2022-11-15T12:15:29;2.90;;;1.83;;
22097;SDS011;11215;51.938;8.464;2022-11-15T12:18:00;2.27;;;1.80;;
22097;SDS011;11215;51.938;8.464;2022-11-15T12:20:27;3.43;;;1.50;;
22097;SDS011;11215;51.938;8.464;2022-11-15T12:23:03;8.50;;;1.97;;
22097;SDS011;11215;51.938;8.464;2022-11-15T12:28:22;2.07;;;1.60;;
22097;SDS011;11215;51.938;8.464;2022-11-15T12:33:46;1.73;;;1.40;;
22097;SDS011;11215;51.938;8.464;2022-11-15T12:39:04;2.33;;;1.50;;
22097;SDS011;11215;51.938;8.464;2022-11-15T12:41:32;2.80;;;1.50;;
22097;SDS011;11215;51.938;8.464;2022-11-15T12:43:59;2.33;;;1.70;;
22097;SDS011;11215;51.938;8.464;2022-11-15T12:46:58;3.97;;;2.17;;
22097;SDS011;11215;51.938;8.464;2022-11-15T13:00:36;2.07;;;1.60;;
22097;SDS011;11215;51.938;8.464;2022-11-15T13:20:18;1.30;;;1.20;;
22097;SDS011;11215;51.938;8.464;2022-11-15T13:28:02;1.80;;;1.30;;
22097;SDS011;11215;51.938;8.464;2022-11-15T13:30:35;1.03;;;1.00;;
22097;SDS011;11215;51.938;8.464;2022-11-15T13:33:09;3.93;;;1.50;;
22097;SDS011;11215;51.938;8.464;2022-11-15T13:35:40;1.33;;;1.10;;
22097;SDS011;11215;51.938;8.464;2022-11-15T13:38:11;1.50;;;1.00;;
22097;SDS011;11215;51.938;8.464;2022-11-15T13:40:50;2.40;;;1.67;;
22097;SDS011;11215;51.938;8.464;2022-11-15T13:43:34;1.70;;;1.20;;
22097;SDS011;11215;51.938;8.464;2022-11-15T13:46:15;2.17;;;1.27;;
22097;SDS011;11215;51.938;8.464;2022-11-15T13:48:44;1.20;;;1.10;;
22097;SDS011;11215;51.938;8.464;2022-11-15T13:53:49;1.67;;;1.37;;
22097;SDS011;11215;51.938;8.464;2022-11-15T13:56:19;3.43;;;1.33;;
22097;SDS011;11215;51.938;8.464;2022-11-15T13:58:46;2.70;;;1.03;;
22097;SDS011;11215;51.938;8.464;2022-11-15T14:01:16;0.90;;;0.90;;
22097;SDS011;11215;51.938;8.464;2022-11-15T14:03:56;2.00;;;1.47;;
22097;SDS011;11215;51.938;8.464;2022-11-15T14:06:24;1.47;;;1.00;;
22097;SDS011;11215;51.938;8.464;2022-11-15T14:11:36;1.33;;;1.20;;
22097;SDS011;11215;51.938;8.464;2022-11-15T14:14:05;1.10;;;1.00;;
22097;SDS011;11215;51.938;8.464;2022-11-15T14:16:45;1.20;;;1.10;;
22097;SDS011;11215;51.938;8.464;2022-11-15T14:19:32;0.97;;;0.93;;
22097;SDS011;11215;51.938;8.464;2022-11-15T14:27:31;2.17;;;1.10;;
22097;SDS011;11215;51.938;8.464;2022-11-15T14:29:57;1.47;;;1.17;;
22097;SDS011;11215;51.938;8.464;2022-11-15T14:32:27;1.77;;;1.00;;
22097;SDS011;11215;51.938;8.464;2022-11-15T14:34:58;1.73;;;1.40;;
22097;SDS011;11215;51.938;8.464;2022-11-15T14:37:32;1.30;;;1.20;;
22097;SDS011;11215;51.938;8.464;2022-11-15T14:40:03;1.43;;;1.10;;
22097;SDS011;11215;51.938;8.464;2022-11-15T14:42:33;1.67;;;1.20;;
22097;SDS011;11215;51.938;8.464;2022-11-15T14:44:58;3.13;;;1.00;;
22097;SDS011;11215;51.938;8.464;2022-11-15T14:47:24;1.13;;;1.03;;
22097;SDS011;11215;51.938;8.464;2022-11-15T14:49:49;1.37;;;1.27;;
22097;SDS011;11215;51.938;8.464;2022-11-15T14:52:25;1.80;;;1.27;;
22097;SDS011;11215;51.938;8.464;2022-11-15T14:54:54;3.63;;;1.53;;
22097;SDS011;11215;51.938;8.464;2022-11-15T14:57:24;2.50;;;1.50;;
22097;SDS011;11215;51.938;8.464;2022-11-15T14:59:49;3.30;;;1.63;;
22097;SDS011;11215;51.938;8.464;2022-11-15T15:02:22;1.60;;;1.50;;
22097;SDS011;11215;51.938;8.464;2022-11-15T15:04:49;3.23;;;1.77;;
22097;SDS011;11215;51.938;8.464;2022-11-15T15:07:16;4.17;;;1.87;;
22097;SDS011;11215;51.938;8.464;2022-11-15T15:09:42;2.23;;;1.73;;
22097;SDS011;11215;51.938;8.464;2022-11-15T15:12:21;1.87;;;1.60;;
22097;SDS011;11215;51.938;8.464;2022-11-15T15:14:48;2.40;;;1.73;;
22097;SDS011;11215;51.938;8.464;2022-11-15T15:17:15;3.37;;;1.90;;
22097;SDS011;11215;51.938;8.464;2022-11-15T15:19:41;2.60;;;2.10;;
22097;SDS011;11215;51.938;8.464;2022-11-15T15:22:17;3.83;;;1.80;;
22097;SDS011;11215;51.938;8.464;2022-11-15T15:24:46;2.47;;;1.90;;
22097;SDS011;11215;51.938;8.464;2022-11-15T15:27:12;2.53;;;1.90;;
22097;SDS011;11215;51.938;8.464;2022-11-15T15:29:39;3.77;;;1.73;;
22097;SDS011;11215;51.938;8.464;2022-11-15T15:32:05;2.40;;;1.70;;
22097;SDS011;11215;51.938;8.464;2022-11-15T15:34:31;4.67;;;2.00;;
22097;SDS011;11215;51.938;8.464;2022-11-15T15:39:50;5.40;;;2.20;;
22097;SDS011;11215;51.938;8.464;2022-11-15T15:42:17;3.90;;;2.03;;
22097;SDS011;11215;51.938;8.464;2022-11-15T15:44:43;3.63;;;2.03;;
22097;SDS011;11215;51.938;8.464;2022-11-15T15:47:12;2.87;;;1.77;;
22097;SDS011;11215;51.938;8.464;2022-11-15T15:49:40;2.73;;;1.93;;
22097;SDS011;11215;51.938;8.464;2022-11-15T15:52:06;2.77;;;1.90;;
22097;SDS011;11215;51.938;8.464;2022-11-15T15:54:32;2.60;;;1.87;;
22097;SDS011;11215;51.938;8.464;2022-11-15T15:56:57;2.37;;;2.10;;
22097;SDS011;11215;51.938;8.464;2022-11-15T15:59:23;2.50;;;1.93;;
22097;SDS011;11215;51.938;8.464;2022-11-15T16:01:49;3.43;;;1.90;;
22097;SDS011;11215;51.938;8.464;2022-11-15T16:04:14;2.50;;;2.30;;
22097;SDS011;11215;51.938;8.464;2022-11-15T16:06:40;5.03;;;3.37;;
22097;SDS011;11215;51.938;8.464;2022-11-15T16:09:12;3.27;;;2.97;;
22097;SDS011;11215;51.938;8.464;2022-11-15T16:11:39;2.70;;;2.40;;
22097;SDS011;11215;51.938;8.464;2022-11-15T16:14:06;2.40;;;2.20;;
22097;SDS011;11215;51.938;8.464;2022-11-15T16:16:35;2.13;;;1.93;;
22097;SDS011;11215;51.938;8.464;2022-11-15T16:19:03;3.73;;;2.00;;
22097;SDS011;11215;51.938;8.464;2022-11-15T16:21:29;3.27;;;1.90;;
22097;SDS011;11215;51.938;8.464;2022-11-15T16:23:55;4.97;;;2.00;;
22097;SDS011;11215;51.938;8.464;2022-11-15T16:26:21;3.33;;;2.33;;
22097;SDS011;11215;51.938;8.464;2022-11-15T16:28:50;2.60;;;1.90;;
22097;SDS011;11215;51.938;8.464;2022-11-15T16:31:16;3.20;;;1.70;;
22097;SDS011;11215;51.938;8.464;2022-11-15T16:33:44;2.37;;;2.03;;
22097;SDS011;11215;51.938;8.464;2022-11-15T16:36:15;3.20;;;1.60;;
22097;SDS011;11215;51.938;8.464;2022-11-15T16:38:43;2.70;;;1.70;;
22097;SDS011;11215;51.938;8.464;2022-11-15T16:41:08;3.20;;;1.90;;
22097;SDS011;11215;51.938;8.464;2022-11-15T16:43:34;3.80;;;2.70;;
22097;SDS011;11215;51.938;8.464;2022-11-15T16:46:02;3.73;;;2.43;;
22097;SDS011;11215;51.938;8.464;2022-11-15T16:48:34;2.43;;;1.90;;
22097;SDS011;11215;51.938;8.464;2022-11-15T16:50:59;6.20;;;2.43;;
22097;SDS011;11215;51.938;8.464;2022-11-15T16:53:25;4.53;;;2.60;;
22097;SDS011;11215;51.938;8.464;2022-11-15T16:55:51;2.30;;;2.10;;
22097;SDS011;11215;51.938;8.464;2022-11-15T16:58:17;3.60;;;1.80;;
22097;SDS011;11215;51.938;8.464;2022-11-15T17:00:43;2.93;;;1.90;;
22097;SDS011;11215;51.938;8.464;2022-11-15T17:03:09;2.43;;;2.03;;
22097;SDS011;11215;51.938;8.464;2022-11-15T17:05:34;3.90;;;2.00;;
22097;SDS011;11215;51.938;8.464;2022-11-15T17:08:00;4.07;;;3.30;;
22097;SDS011;11215;51.938;8.464;2022-11-15T17:10:26;3.30;;;2.37;;
22097;SDS011;11215;51.938;8.464;2022-11-15T17:16:15;2.27;;;1.93;;
22097;SDS011;11215;51.938;8.464;2022-11-15T17:18:42;2.30;;;2.00;;
22097;SDS011;11215;51.938;8.464;2022-11-15T17:21:15;3.60;;;3.10;;
22097;SDS011;11215;51.938;8.464;2022-11-15T17:23:42;3.43;;;2.20;;
22097;SDS011;11215;51.938;8.464;2022-11-15T17:26:09;4.57;;;3.50;;
22097;SDS011;11215;51.938;8.464;2022-11-15T17:28:36;4.00;;;3.10;;